Flight Track Log - Related Links

Times and Time Zones

All times are in EDT time to prevent confusion due to time zone crossing. See the KAP45 flight status page for this flight to view local times or setup timezone preferences in your user account.

Time Position Orientation Groundspeed Altitude Reporting Facility
EDT Latitude Longitude Course Direction KTS MPH feet Rate Location/Type
Sat 08:04:20 PM 42.3667 -71.0167 270° West 118 136 500  Level KA90
Sat 08:04:56 PM 42.3667 -71.0333 270° West 107 123 1,100 735 Climbing KA90
Sat 08:05:58 PM 42.3833 -71.0833 294° West 116 133 1,700 545 Climbing KA90
Sat 08:06:57 PM 42.4000 -71.1167 304° West 135 155 2,200 661 Climbing KA90
Sat 08:07:56 PM 42.4167 -71.1500 304° West 126 145 3,000 724 Climbing KA90
Sat 08:08:53 PM 42.4333 -71.1833 304° West 126 145 3,600 513 Climbing KA90
Sat 08:09:53 PM 42.4667 -71.2167 324° Northwest 155 178 4,000 462 Climbing KA90
Sat 08:10:50 PM 42.5000 -71.2333 340° North 163 188 4,500 462 Climbing KA90
Sat 08:11:50 PM 42.5500 -71.2500 346° North 161 185 4,900 450 Climbing KA90
Sat 08:12:50 PM 42.6000 -71.2667 346° North 162 186 5,400 496 Climbing KA90
Sat 08:13:51 PM 42.6333 -71.2833 340° North 158 182 5,900 316 Climbing KA90
Sat 08:14:44 PM 42.6833 -71.3000 346° North 164 189 6,000 52 Climbing KA90
Sat 08:15:47 PM 42.7167 -71.3167 340° North 167 192 6,000  Level KA90
Sat 08:16:51 PM 42.7500 -71.3500 324° Northwest 151 174 6,000  Level KA90
Sat 08:17:51 PM 42.7833 -71.3833 324° Northwest 152 175 6,000  Level KA90
Sat 08:18:45 PM 42.8167 -71.4167 324° Northwest 154 177 6,000  Level KA90
Sat 08:20:09 PM 42.8667 -71.4667 324° Northwest 156 180 6,000  Level KA90
Sat 08:20:40 PM 42.8833 -71.4833 324° Northwest 158 182 6,000  Level KA90
Sat 08:21:57 PM 42.9333 -71.5333 324° Northwest 156 180 6,000  Level KA90
Sat 08:23:06 PM 42.9667 -71.5833 312° West 154 177 6,000  Level KA90
Sat 08:23:46 PM 43.0000 -71.6000 340° North 154 177 6,000  Level KA90
Sat 08:24:47 PM 43.0167 -71.6333 304° West 155 178 6,000  Level KA90
Sat 08:25:47 PM 43.0667 -71.6833 324° Northwest 156 180 6,000  Level KA90
Sat 08:26:51 PM 43.1000 -71.7167 324° Northwest 156 180 6,000  Level KA90
Sat 08:28:39 PM 43.1550 -71.7883 316° Northwest 169 194 6,000  Level Boston Center
Sat 08:29:39 PM 43.1822 -71.8194 320° Northwest 158 182 6,000  Level Boston Center
Sat 08:30:39 PM 43.2200 -71.8589 323° Northwest 158 182 6,000  Level Boston Center
Sat 08:31:39 PM 43.2536 -71.8928 324° Northwest 158 182 6,000  Level Boston Center
Sat 08:32:39 PM 43.2933 -71.9294 326° Northwest 158 182 6,000  Level Boston Center
Sat 08:33:39 PM 43.3247 -71.9578 327° Northwest 158 182 6,000 45 Level Boston Center
Sat 08:34:51 PM 43.3664 -71.9944 327° Northwest 158 182 6,100  Climbing Boston Center
Sat 08:35:51 PM 43.4083 -72.0342 325° Northwest 158 182 6,000  Descending Boston Center
Sat 08:36:51 PM 43.4461 -72.0683 327° Northwest 163 188 6,100 50 Climbing Boston Center
Sat 08:37:51 PM 43.4814 -72.0997 327° Northwest 163 188 6,100  Level Boston Center
Sat 08:38:51 PM 43.5150 -72.1336 324° Northwest 158 182 6,100  Level Boston Center
Sat 08:39:51 PM 43.5525 -72.1681 326° Northwest 153 176 6,100 -50 Level Boston Center
Sat 08:40:51 PM 43.5881 -72.1994 327° Northwest 153 176 6,000 -200 Descending Boston Center
Sat 08:41:51 PM 43.6256 -72.2364 325° Northwest 153 176 5,700 -300 Descending Boston Center
Sat 08:42:51 PM 43.6672 -72.2736 327° Northwest 159 183 5,400 -150 Descending Boston Center
Sat 08:43:51 PM 43.7050 -72.3081 327° Northwest 159 183 5,400 300 Level Boston Center
Sat 08:44:51 PM 43.7425 -72.3453 324° Northwest 159 183 6,000 600 Climbing Boston Center

Login

Don't have an account? Register now (free) for customized features, flight alerts, and more!